Time;durP1;ratioP1;P1;durP2;ratioP2;P2;SDS_P1;SDS_P2;PMS_P1;PMS_P2;Temp;Humidity;BMP_temperature;BMP_pressure;BME280_temperature;BME280_humidity;BME280_pressure;Samples;Min_cycle;Max_cycle;Signal;HPM_P1;HPM_P2
2022/04/05 00:02:16;;;;;;;6.07;4.97;;;8.90;99.90;;;;;;5050438;28;20039;-78
2022/04/05 00:04:42;;;;;;;6.32;4.40;;;8.90;99.90;;;;;;5050504;28;20020;-78
2022/04/05 00:07:07;;;;;;;6.50;4.90;;;9.00;99.90;;;;;;5049884;28;20067;-77
2022/04/05 00:09:33;;;;;;;6.95;5.28;;;8.80;99.90;;;;;;5050428;28;20483;-77
2022/04/05 00:11:59;;;;;;;7.05;5.50;;;8.80;99.90;;;;;;5050393;28;20033;-77
2022/04/05 00:14:25;;;;;;;8.13;5.90;;;8.80;99.90;;;;;;5048934;28;20032;-77
2022/04/05 00:16:50;;;;;;;6.70;5.32;;;8.90;99.90;;;;;;5050340;28;20027;-78
2022/04/05 00:19:19;;;;;;;5.38;4.47;;;8.90;99.90;;;;;;5050785;28;20017;-77
2022/04/05 00:21:45;;;;;;;5.18;4.38;;;8.90;99.90;;;;;;5050289;28;20649;-78
2022/04/05 00:24:11;;;;;;;7.25;4.20;;;8.80;99.90;;;;;;5050481;28;20052;-78
2022/04/05 00:26:37;;;;;;;5.60;4.57;;;8.80;99.90;;;;;;5050288;28;20505;-78
2022/04/05 00:29:02;;;;;;;7.53;4.60;;;8.90;99.90;;;;;;5050237;28;20052;-78
2022/04/05 00:31:28;;;;;;;6.47;4.95;;;8.90;99.90;;;;;;5049580;28;20079;-78
2022/04/05 00:33:53;;;;;;;6.88;5.38;;;8.80;99.90;;;;;;5050365;28;20064;-78
2022/04/05 00:36:19;;;;;;;6.97;4.78;;;8.80;99.90;;;;;;5050262;28;20103;-78
2022/04/05 00:38:45;;;;;;;6.00;4.82;;;8.80;99.90;;;;;;5050369;28;20036;-78
2022/04/05 00:41:10;;;;;;;6.03;4.07;;;8.90;99.90;;;;;;5051491;28;20413;-77
2022/04/05 00:43:36;;;;;;;5.45;4.28;;;8.80;99.90;;;;;;5054560;28;20033;-78
2022/04/05 00:46:05;;;;;;;5.95;4.18;;;8.90;99.90;;;;;;5053963;28;20473;-77
2022/04/05 00:48:51;;;;;;;6.47;4.05;;;8.90;99.90;;;;;;5054187;28;20037;-77
2022/04/05 00:51:18;;;;;;;5.68;4.10;;;8.90;99.90;;;;;;5053839;28;20025;-78
2022/04/05 00:53:47;;;;;;;4.88;3.90;;;8.80;99.90;;;;;;5054082;28;20090;-77
2022/04/05 00:56:18;;;;;;;4.88;3.58;;;8.90;99.90;;;;;;5052946;28;20037;-77
2022/04/05 00:58:54;;;;;;;7.43;3.53;;;8.80;99.90;;;;;;5053768;28;20086;-78
2022/04/05 01:01:24;;;;;;;6.00;3.20;;;8.80;99.90;;;;;;5053257;28;20625;-79
2022/04/05 01:03:51;;;;;;;4.18;2.85;;;8.70;99.90;;;;;;5052804;28;20025;-79
2022/04/05 01:06:30;;;;;;;4.78;3.35;;;8.70;99.90;;;;;;5052694;28;20354;-78
2022/04/05 01:08:57;;;;;;;5.00;3.40;;;8.70;99.90;;;;;;5053948;28;20033;-77
2022/04/05 01:11:23;;;;;;;4.05;2.90;;;8.80;99.90;;;;;;5053262;28;20033;-78
2022/04/05 01:13:48;;;;;;;3.53;2.65;;;8.80;99.90;;;;;;5058063;28;20057;-77
2022/04/05 01:16:14;;;;;;;2.80;2.10;;;8.80;99.90;;;;;;5054746;28;20108;-77
2022/04/05 01:18:40;;;;;;;5.65;2.40;;;8.70;99.90;;;;;;5053380;28;20029;-77
2022/04/05 01:21:05;;;;;;;3.72;2.55;;;8.80;99.90;;;;;;5054072;28;20360;-76
2022/04/05 01:23:31;;;;;;;5.47;2.42;;;8.70;99.90;;;;;;5056644;28;20048;-79
2022/04/05 01:25:57;;;;;;;3.67;2.08;;;8.70;99.90;;;;;;5058081;28;20136;-78
2022/04/05 01:28:25;;;;;;;3.13;2.30;;;8.70;99.90;;;;;;5055530;28;20025;-79
2022/04/05 01:30:52;;;;;;;2.88;1.90;;;8.70;99.90;;;;;;5054802;28;20478;-78
2022/04/05 01:33:18;;;;;;;4.15;2.20;;;8.70;99.90;;;;;;5053777;28;20040;-78
2022/04/05 01:35:44;;;;;;;2.67;2.17;;;8.70;99.90;;;;;;5061067;28;20037;-78
2022/04/05 01:38:13;;;;;;;5.85;2.33;;;8.60;99.90;;;;;;5072461;28;20031;-78
2022/04/05 01:40:38;;;;;;;2.70;1.88;;;8.70;99.90;;;;;;5072042;28;20062;-78
2022/04/05 01:43:05;;;;;;;3.13;2.20;;;8.60;99.90;;;;;;5073525;28;20458;-78
2022/04/05 01:45:31;;;;;;;4.40;2.17;;;8.50;99.90;;;;;;5072004;28;20405;-78
2022/04/05 01:47:57;;;;;;;1.92;1.60;;;8.60;99.90;;;;;;5072571;28;20132;-78
2022/04/05 01:50:22;;;;;;;2.00;1.50;;;8.60;99.90;;;;;;5072720;28;20020;-78
2022/04/05 01:52:51;;;;;;;2.50;1.90;;;8.60;99.90;;;;;;5072073;28;20034;-77
2022/04/05 01:55:16;;;;;;;2.30;1.65;;;8.70;99.90;;;;;;5073164;28;20021;-77
2022/04/05 01:57:42;;;;;;;1.92;1.52;;;8.60;99.90;;;;;;5071654;28;20602;-77
2022/04/05 02:00:14;;;;;;;3.30;1.52;;;8.60;99.90;;;;;;5072760;28;20478;-77
2022/04/05 02:02:43;;;;;;;2.08;1.30;;;8.60;99.90;;;;;;5072555;28;20374;-76
2022/04/05 02:05:10;;;;;;;1.77;1.30;;;8.60;99.90;;;;;;5071437;28;20036;-78
2022/04/05 02:07:37;;;;;;;1.70;1.40;;;8.60;99.90;;;;;;5071836;28;20024;-78
2022/04/05 02:10:03;;;;;;;2.55;1.40;;;8.60;99.90;;;;;;5071583;28;20100;-77
2022/04/05 02:12:29;;;;;;;3.35;1.70;;;8.60;99.90;;;;;;5072335;28;20029;-79
2022/04/05 02:14:54;;;;;;;2.63;1.30;;;8.60;99.90;;;;;;5072357;28;20027;-78
2022/04/05 02:17:20;;;;;;;3.83;2.03;;;8.50;99.90;;;;;;5072327;28;20032;-78
2022/04/05 02:19:46;;;;;;;1.88;1.50;;;8.50;99.90;;;;;;5072289;28;20029;-78
2022/04/05 02:22:11;;;;;;;2.38;1.45;;;8.50;99.90;;;;;;5071595;28;20456;-77
2022/04/05 02:24:37;;;;;;;2.58;1.70;;;8.50;99.90;;;;;;5071029;28;20078;-78
2022/04/05 02:27:03;;;;;;;1.52;1.27;;;8.50;99.90;;;;;;5072054;28;20045;-78
2022/04/05 02:29:28;;;;;;;2.75;1.17;;;8.50;99.90;;;;;;5071930;28;20365;-78
2022/04/05 02:31:54;;;;;;;1.52;0.98;;;8.60;99.90;;;;;;5072050;28;20093;-79
2022/04/05 02:34:19;;;;;;;4.43;1.52;;;8.50;99.90;;;;;;5072434;28;20067;-78
2022/04/05 02:36:45;;;;;;;3.95;1.33;;;8.50;99.90;;;;;;5072189;28;20037;-79
2022/04/05 02:39:11;;;;;;;2.05;1.50;;;8.50;99.90;;;;;;5071096;28;20036;-79
2022/04/05 02:41:37;;;;;;;3.67;1.88;;;8.40;99.90;;;;;;5071858;28;20040;-79
2022/04/05 02:44:02;;;;;;;1.95;1.30;;;8.50;99.90;;;;;;5071925;28;20545;-77
2022/04/05 02:46:28;;;;;;;4.47;1.30;;;8.40;99.90;;;;;;5072159;28;20074;-77
2022/04/05 02:48:54;;;;;;;2.63;1.20;;;8.50;99.90;;;;;;5070498;28;20078;-77
2022/04/05 02:51:21;;;;;;;2.30;1.50;;;8.50;99.90;;;;;;5071682;28;20028;-77
2022/04/05 02:53:47;;;;;;;2.75;1.40;;;8.50;99.90;;;;;;5071575;28;20407;-78
2022/04/05 02:56:14;;;;;;;2.35;1.50;;;8.50;99.90;;;;;;5071587;28;20032;-77
2022/04/05 02:58:39;;;;;;;2.40;1.60;;;8.50;99.90;;;;;;5071583;28;20047;-79
2022/04/05 03:01:05;;;;;;;3.33;1.40;;;8.50;99.90;;;;;;5071912;28;20438;-80
2022/04/05 03:03:32;;;;;;;2.40;1.40;;;8.50;99.90;;;;;;5071542;28;20454;-79
2022/04/05 03:05:58;;;;;;;1.85;1.60;;;8.50;99.90;;;;;;5070343;28;20044;-77
2022/04/05 03:08:24;;;;;;;2.92;1.30;;;8.50;99.90;;;;;;5071454;28;20040;-77
2022/04/05 03:10:50;;;;;;;5.28;1.75;;;8.50;99.90;;;;;;5070142;28;20454;-77
2022/04/05 03:13:16;;;;;;;3.10;1.88;;;8.50;99.90;;;;;;5071748;28;20416;-77
2022/04/05 03:15:42;;;;;;;2.28;1.48;;;8.50;99.90;;;;;;5071144;28;20207;-78
2022/04/05 03:18:07;;;;;;;1.52;1.42;;;8.50;99.90;;;;;;5069913;28;20052;-76
2022/04/05 03:20:33;;;;;;;3.35;1.55;;;8.60;99.90;;;;;;5071150;28;20029;-78
2022/04/05 03:23:00;;;;;;;3.70;1.70;;;8.50;99.90;;;;;;5071164;28;20020;-79
2022/04/05 03:25:27;;;;;;;1.88;1.10;;;8.60;99.90;;;;;;5070291;28;20103;-77
2022/04/05 03:27:53;;;;;;;3.85;1.75;;;8.70;99.90;;;;;;5071134;28;20024;-78
2022/04/05 03:30:21;;;;;;;4.05;1.30;;;8.70;99.90;;;;;;5070897;28;20101;-79
2022/04/05 03:32:47;;;;;;;4.07;1.42;;;8.60;99.90;;;;;;5069972;28;20063;-79
2022/04/05 03:35:13;;;;;;;2.58;1.25;;;8.60;99.90;;;;;;5071153;28;20052;-78
2022/04/05 03:37:38;;;;;;;7.93;1.02;;;8.70;99.90;;;;;;5071003;28;20032;-78
2022/04/05 03:40:08;;;;;;;2.50;1.35;;;8.60;99.90;;;;;;5071261;28;20021;-78
2022/04/05 03:42:34;;;;;;;2.42;1.40;;;8.60;99.90;;;;;;5070049;28;20048;-79
2022/04/05 03:45:00;;;;;;;2.83;1.30;;;8.70;99.90;;;;;;5070771;28;20059;-79
2022/04/05 03:47:27;;;;;;;2.70;1.30;;;8.70;99.90;;;;;;5070487;28;20362;-79
2022/04/05 03:49:53;;;;;;;8.32;1.70;;;8.60;99.90;;;;;;5070643;28;20028;-79
2022/04/05 03:52:19;;;;;;;5.90;1.35;;;8.50;99.90;;;;;;5071255;28;20095;-80
2022/04/05 03:54:45;;;;;;;6.10;1.50;;;8.40;99.90;;;;;;5070548;28;20124;-79
2022/04/05 03:57:10;;;;;;;3.30;1.38;;;8.50;99.90;;;;;;5069749;28;20520;-77
2022/04/05 03:59:36;;;;;;;5.85;1.50;;;8.60;99.90;;;;;;5070729;28;20406;-77
2022/04/05 04:02:02;;;;;;;6.40;1.98;;;8.60;99.90;;;;;;5070383;28;20142;-78
2022/04/05 04:04:27;;;;;;;3.97;1.42;;;8.60;99.90;;;;;;5070969;28;20017;-78
2022/04/05 04:06:53;;;;;;;6.20;1.83;;;8.60;99.90;;;;;;5070619;28;20672;-79
2022/04/05 04:09:18;;;;;;;4.93;1.50;;;8.60;99.90;;;;;;5070325;28;20497;-78
2022/04/05 04:11:48;;;;;;;2.30;1.40;;;8.70;99.90;;;;;;5070377;28;20056;-77
2022/04/05 04:14:13;;;;;;;7.85;2.45;;;8.80;99.90;;;;;;5070522;28;20331;-78
2022/04/05 04:16:39;;;;;;;7.50;1.50;;;8.90;99.90;;;;;;5072205;28;20058;-78
2022/04/05 04:19:05;;;;;;;5.90;1.80;;;9.00;99.90;;;;;;5074936;28;20033;-78
2022/04/05 04:21:31;;;;;;;3.88;1.50;;;9.10;99.90;;;;;;5074470;28;20201;-79
2022/04/05 04:23:56;;;;;;;6.35;1.42;;;9.00;99.90;;;;;;5074362;28;20024;-77
2022/04/05 04:26:22;;;;;;;10.35;1.60;;;8.80;99.90;;;;;;5074317;28;20382;-78
2022/04/05 04:28:51;;;;;;;6.95;2.50;;;9.00;99.90;;;;;;5074263;28;20028;-78
2022/04/05 04:31:17;;;;;;;10.10;1.90;;;8.90;99.90;;;;;;5074701;28;20028;-77
2022/04/05 04:33:43;;;;;;;13.48;3.05;;;8.90;99.90;;;;;;5074474;28;20343;-77
2022/04/05 04:36:09;;;;;;;7.80;2.13;;;8.80;99.90;;;;;;5073921;28;20033;-78
2022/04/05 04:38:34;;;;;;;7.57;2.00;;;8.70;99.90;;;;;;5074240;28;20271;-78
2022/04/05 04:41:00;;;;;;;6.20;1.48;;;8.70;99.90;;;;;;5073862;28;20458;-78
2022/04/05 04:43:27;;;;;;;8.68;1.55;;;8.60;99.90;;;;;;5074375;28;20116;-79
2022/04/05 04:45:53;;;;;;;10.95;1.38;;;8.50;99.90;;;;;;5072700;28;20025;-77
2022/04/05 04:48:19;;;;;;;13.65;1.75;;;8.50;99.90;;;;;;5073791;28;20036;-78
2022/04/05 04:50:46;;;;;;;12.60;2.22;;;8.50;99.90;;;;;;5072732;28;20029;-79
2022/04/05 04:53:12;;;;;;;8.27;1.40;;;8.30;99.90;;;;;;5073894;28;20047;-77
2022/04/05 04:55:38;;;;;;;7.07;1.80;;;8.40;99.90;;;;;;5073970;28;20607;-77
2022/04/05 04:58:03;;;;;;;13.73;1.60;;;8.60;99.90;;;;;;5074190;28;20025;-77
2022/04/05 05:00:29;;;;;;;12.32;2.80;;;8.50;99.90;;;;;;5073634;28;20025;-77
2022/04/05 05:02:55;;;;;;;7.75;1.42;;;8.40;99.90;;;;;;5073442;28;20029;-79
2022/04/05 05:05:21;;;;;;;10.75;1.60;;;8.40;99.90;;;;;;5073489;28;20469;-79
2022/04/05 05:07:48;;;;;;;10.60;1.58;;;8.50;99.90;;;;;;5073380;28;20052;-78
2022/04/05 05:10:15;;;;;;;12.53;2.47;;;8.60;99.90;;;;;;5073982;28;20029;-78
2022/04/05 05:12:42;;;;;;;19.75;2.13;;;8.60;99.90;;;;;;5073511;28;20262;-78
2022/04/05 05:15:17;;;;;;;11.73;1.70;;;8.70;99.60;;;;;;5073536;28;20052;-79
2022/04/05 05:17:43;;;;;;;4.47;1.20;;;8.60;99.40;;;;;;5072282;28;20078;-78
2022/04/05 05:20:10;;;;;;;6.50;1.55;;;8.70;99.60;;;;;;5073094;28;20029;-78
2022/04/05 05:22:36;;;;;;;13.00;1.95;;;8.70;99.60;;;;;;5073669;28;20020;-77
2022/04/05 05:25:03;;;;;;;6.95;1.35;;;8.70;99.40;;;;;;5072219;28;20035;-77
2022/04/05 05:27:29;;;;;;;13.63;1.80;;;8.70;99.40;;;;;;5072420;28;20063;-77
2022/04/05 05:29:55;;;;;;;8.07;1.67;;;8.70;99.50;;;;;;5072324;28;20064;-84
2022/04/05 05:32:20;;;;;;;11.60;3.15;;;8.70;99.40;;;;;;5073518;28;20044;-77
2022/04/05 05:34:46;;;;;;;14.02;2.88;;;8.70;99.40;;;;;;5073267;28;20139;-78
2022/04/05 05:37:12;;;;;;;12.95;2.10;;;8.70;99.30;;;;;;5072572;28;20024;-80
2022/04/05 05:39:38;;;;;;;13.82;1.77;;;8.70;99.30;;;;;;5056480;28;20067;-79
2022/04/05 05:42:05;;;;;;;15.98;2.17;;;8.60;99.20;;;;;;5053192;28;20106;-82
2022/04/05 05:44:31;;;;;;;9.43;2.25;;;8.50;99.00;;;;;;5051830;28;20022;-76
2022/04/05 05:46:57;;;;;;;13.43;1.65;;;8.60;99.00;;;;;;5052801;28;20049;-79
2022/04/05 05:49:23;;;;;;;9.02;2.20;;;8.70;99.00;;;;;;5052163;28;20469;-77
2022/04/05 05:51:48;;;;;;;12.63;1.88;;;8.80;98.90;;;;;;5052800;28;20176;-77
2022/04/05 05:54:14;;;;;;;17.42;1.67;;;8.60;98.40;;;;;;5052897;28;20048;-77
2022/04/05 05:56:39;;;;;;;11.35;1.98;;;8.50;98.70;;;;;;5051630;28;20033;-76
2022/04/05 05:59:05;;;;;;;11.23;2.10;;;8.60;98.70;;;;;;5052884;28;20032;-80
2022/04/05 06:01:31;;;;;;;10.85;1.85;;;8.50;98.50;;;;;;5053002;28;20088;-78
2022/04/05 06:03:56;;;;;;;10.82;1.77;;;8.60;98.60;;;;;;5051613;28;20437;-84
2022/04/05 06:06:22;;;;;;;8.05;1.58;;;8.70;98.50;;;;;;5051491;28;20108;-81
2022/04/05 06:08:47;;;;;;;9.40;1.77;;;8.60;98.20;;;;;;5052522;28;20149;-76
2022/04/05 06:11:13;;;;;;;10.38;2.30;;;8.60;98.30;;;;;;5052487;28;20033;-83
2022/04/05 06:13:39;;;;;;;11.60;1.60;;;8.50;98.30;;;;;;5052497;28;20082;-83
2022/04/05 06:16:07;;;;;;;10.32;1.58;;;8.70;98.30;;;;;;5051052;28;20117;-77
2022/04/05 06:18:34;;;;;;;6.65;1.95;;;8.70;98.10;;;;;;5052170;28;20163;-74
2022/04/05 06:21:00;;;;;;;12.23;1.83;;;8.70;98.10;;;;;;5052368;28;20037;-76
2022/04/05 06:23:25;;;;;;;16.17;1.70;;;8.90;98.10;;;;;;5051014;28;20031;-73
2022/04/05 06:25:51;;;;;;;13.80;3.10;;;8.90;97.90;;;;;;5052175;28;20079;-75
2022/04/05 06:28:18;;;;;;;17.63;2.13;;;9.00;97.90;;;;;;5052597;28;20025;-75
2022/04/05 06:30:44;;;;;;;14.07;2.17;;;8.90;97.90;;;;;;5052226;28;20039;-74
2022/04/05 06:33:15;;;;;;;16.40;1.77;;;9.00;98.10;;;;;;5051922;28;20254;-79
2022/04/05 06:35:44;;;;;;;10.30;2.15;;;9.00;98.00;;;;;;5051016;28;20082;-75
2022/04/05 06:38:10;;;;;;;11.30;1.75;;;9.00;97.90;;;;;;5051949;28;20040;-75
2022/04/05 06:40:36;;;;;;;10.93;2.00;;;9.10;98.10;;;;;;5052283;28;20033;-75
2022/04/05 06:43:02;;;;;;;10.02;2.15;;;9.00;98.00;;;;;;5051843;28;20032;-74
2022/04/05 06:45:29;;;;;;;9.25;2.20;;;9.20;97.90;;;;;;5051906;28;20033;-72
2022/04/05 06:47:54;;;;;;;12.68;2.33;;;9.30;97.90;;;;;;5051683;28;20060;-78
2022/04/05 06:50:24;;;;;;;16.67;1.90;;;9.20;98.00;;;;;;5052137;28;20358;-73
2022/04/05 06:52:50;;;;;;;8.70;2.00;;;9.20;97.90;;;;;;5050755;28;20120;-74
2022/04/05 06:55:16;;;;;;;17.13;2.45;;;9.30;98.20;;;;;;5051243;28;20021;-75
2022/04/05 06:57:42;;;;;;;19.20;2.63;;;9.30;98.10;;;;;;5051559;28;20040;-72
2022/04/05 07:00:11;;;;;;;13.75;2.17;;;9.40;98.00;;;;;;5051431;28;20028;-74
2022/04/05 07:02:37;;;;;;;10.13;2.55;;;9.40;97.90;;;;;;5051283;28;20455;-73
2022/04/05 07:05:04;;;;;;;8.57;2.20;;;9.40;98.30;;;;;;5050149;28;20033;-77
2022/04/05 07:07:30;;;;;;;11.02;1.75;;;9.30;98.40;;;;;;5050913;28;20017;-77
2022/04/05 07:09:55;;;;;;;10.20;2.30;;;9.50;98.40;;;;;;5051465;28;20478;-80
2022/04/05 07:12:23;;;;;;;10.07;2.60;;;9.40;98.20;;;;;;5050167;28;20021;-76
2022/04/05 07:14:49;;;;;;;10.65;2.00;;;9.40;98.30;;;;;;5051392;28;20112;-77
2022/04/05 07:17:15;;;;;;;12.18;1.73;;;9.40;98.10;;;;;;5051575;28;20022;-76
2022/04/05 07:19:40;;;;;;;12.48;2.40;;;9.40;97.90;;;;;;5051198;28;20043;-73
2022/04/05 07:22:06;;;;;;;8.40;1.70;;;9.30;97.80;;;;;;5050288;28;20025;-76
2022/04/05 07:24:32;;;;;;;8.38;2.10;;;9.30;97.90;;;;;;5050790;28;20025;-74
2022/04/05 07:26:57;;;;;;;10.77;1.80;;;9.50;98.00;;;;;;5050976;28;20033;-75
2022/04/05 07:29:23;;;;;;;12.60;1.77;;;9.70;97.70;;;;;;5050930;28;20070;-76
2022/04/05 07:31:48;;;;;;;14.55;2.05;;;9.60;97.30;;;;;;5050762;28;20025;-76
2022/04/05 07:34:14;;;;;;;13.18;1.75;;;9.60;96.90;;;;;;5050103;28;20388;-75
2022/04/05 07:36:40;;;;;;;12.85;2.58;;;9.80;96.80;;;;;;5050715;28;20043;-75
2022/04/05 07:39:05;;;;;;;19.42;1.73;;;9.90;96.60;;;;;;5050582;28;20110;-75
2022/04/05 07:41:31;;;;;;;8.52;1.20;;;9.80;96.10;;;;;;5049919;28;20025;-74
2022/04/05 07:43:57;;;;;;;18.80;2.03;;;9.90;96.00;;;;;;5050816;28;20163;-75
2022/04/05 07:46:22;;;;;;;11.98;1.55;;;9.80;95.70;;;;;;5051275;28;20040;-74
2022/04/05 07:48:48;;;;;;;8.32;1.45;;;9.90;95.70;;;;;;5050598;28;20099;-75
2022/04/05 07:51:16;;;;;;;9.75;1.52;;;9.90;95.30;;;;;;5050355;28;20187;-76
2022/04/05 07:53:42;;;;;;;;;;;10.00;94.90;;;;;;5050589;28;20025;-77
2022/04/05 07:56:08;;;;;;;11.40;2.47;;;10.20;95.00;;;;;;5051130;28;19909;-75
2022/04/05 07:58:34;;;;;;;7.03;1.20;;;10.00;94.60;;;;;;5051119;28;20469;-73
2022/04/05 08:01:00;;;;;;;10.65;1.52;;;10.10;94.80;;;;;;5049689;28;20033;-74
2022/04/05 08:03:27;;;;;;;10.38;1.38;;;10.20;94.70;;;;;;5050740;28;20025;-76
2022/04/05 08:05:53;;;;;;;8.40;1.60;;;10.10;94.80;;;;;;5050036;28;20075;-78
2022/04/05 08:08:19;;;;;;;4.50;1.30;;;10.20;94.80;;;;;;5051451;28;20039;-76
2022/04/05 08:10:45;;;;;;;10.73;1.98;;;10.10;94.90;;;;;;5051228;28;20025;-77
2022/04/05 08:13:10;;;;;;;6.55;1.50;;;10.10;94.90;;;;;;5051615;28;20021;-78
2022/04/05 08:15:38;;;;;;;11.90;1.50;;;10.00;95.10;;;;;;5050037;28;20029;-80
2022/04/05 08:18:03;;;;;;;7.47;1.92;;;10.20;94.90;;;;;;5051237;28;20029;-76
2022/04/05 08:20:29;;;;;;;10.00;1.50;;;10.20;94.60;;;;;;5050956;28;20033;-76
2022/04/05 08:22:55;;;;;;;7.00;1.20;;;10.20;94.50;;;;;;5050199;28;20033;-77
2022/04/05 08:25:21;;;;;;;14.02;1.60;;;10.10;94.60;;;;;;5050244;28;20362;-79
2022/04/05 08:27:48;;;;;;;14.52;1.75;;;10.00;95.00;;;;;;5050619;28;20025;-79
2022/04/05 08:30:17;;;;;;;11.25;1.45;;;9.90;95.00;;;;;;5050603;28;20029;-79
2022/04/05 08:32:45;;;;;;;8.20;1.13;;;10.00;94.90;;;;;;5050490;28;20036;-80
2022/04/05 08:35:12;;;;;;;5.70;1.48;;;10.10;94.60;;;;;;5050392;28;20033;-79
2022/04/05 08:37:40;;;;;;;7.80;1.48;;;10.20;94.60;;;;;;5050488;28;20459;-77
2022/04/05 08:40:07;;;;;;;11.40;2.03;;;10.20;95.00;;;;;;5051094;28;20283;-79
2022/04/05 08:42:37;;;;;;;9.23;1.65;;;10.40;94.90;;;;;;5050723;28;20029;-78
2022/04/05 08:45:06;;;;;;;4.80;1.52;;;10.40;94.90;;;;;;5050648;28;20033;-77
2022/04/05 08:47:34;;;;;;;12.60;2.10;;;10.50;95.10;;;;;;5050435;28;20454;-77
2022/04/05 08:50:01;;;;;;;5.35;1.73;;;10.50;94.80;;;;;;5050010;28;20040;-78
2022/04/05 08:52:26;;;;;;;13.07;1.80;;;10.70;94.90;;;;;;5050716;28;20021;-77
2022/04/05 08:54:52;;;;;;;10.77;1.45;;;10.80;95.00;;;;;;5049363;28;20477;-76
2022/04/05 08:57:17;;;;;;;9.43;1.30;;;10.70;94.70;;;;;;5050583;28;20115;-78
2022/04/05 08:59:43;;;;;;;10.05;1.88;;;10.70;94.40;;;;;;5050296;28;20078;-76
2022/04/05 09:02:09;;;;;;;14.75;2.22;;;10.40;94.90;;;;;;5051047;28;20035;-76
2022/04/05 09:04:35;;;;;;;13.38;2.38;;;10.60;94.80;;;;;;5053319;28;20451;-77
2022/04/05 09:07:21;;;;;;;11.55;2.00;;;10.90;94.80;;;;;;5052729;28;20087;-80
2022/04/05 09:10:13;;;;;;;9.20;1.70;;;10.70;94.70;;;;;;5052596;28;20029;-72
2022/04/05 09:12:49;;;;;;;9.10;1.50;;;10.70;94.50;;;;;;5053504;28;20036;-73
2022/04/05 09:15:21;;;;;;;8.43;2.00;;;10.70;94.40;;;;;;5053293;28;20469;-74
2022/04/05 09:17:48;;;;;;;10.82;2.13;;;10.60;94.60;;;;;;5053506;28;20410;-74
2022/04/05 09:20:15;;;;;;;16.13;2.42;;;10.60;94.70;;;;;;5052076;28;20462;-74
2022/04/05 09:22:41;;;;;;;8.85;2.00;;;10.70;94.60;;;;;;5053377;28;20040;-72
2022/04/05 09:25:12;;;;;;;9.32;1.40;;;10.50;94.50;;;;;;5053541;28;20021;-72
2022/04/05 09:27:52;;;;;;;8.13;1.80;;;10.50;94.80;;;;;;5053320;28;20070;-73
2022/04/05 09:30:19;;;;;;;16.80;1.95;;;10.20;94.90;;;;;;5053124;28;20037;-73
2022/04/05 09:32:48;;;;;;;10.67;1.40;;;10.50;95.00;;;;;;5053177;28;20025;-71
2022/04/05 09:35:19;;;;;;;8.93;1.70;;;10.60;94.40;;;;;;5053123;28;20253;-73
2022/04/05 09:37:46;;;;;;;10.23;1.75;;;10.70;94.50;;;;;;5052901;28;20028;-75
2022/04/05 09:40:35;;;;;;;11.57;2.00;;;10.80;94.30;;;;;;5053577;28;20044;-73
2022/04/05 09:43:04;;;;;;;13.38;2.20;;;10.70;94.30;;;;;;5053099;28;20365;-71
2022/04/05 09:45:53;;;;;;;12.77;1.90;;;10.80;94.20;;;;;;5051785;28;20033;-74
2022/04/05 09:48:21;;;;;;;11.80;1.73;;;10.70;94.50;;;;;;5051714;28;20477;-72
2022/04/05 09:51:05;;;;;;;5.78;1.48;;;10.70;95.00;;;;;;5053062;28;20382;-73
2022/04/05 09:53:47;;;;;;;10.55;1.90;;;10.80;94.90;;;;;;5052999;28;20035;-74
2022/04/05 09:56:15;;;;;;;12.80;2.50;;;10.80;95.10;;;;;;5052441;28;20074;-77
2022/04/05 09:58:52;;;;;;;10.82;2.28;;;11.00;95.40;;;;;;5052757;28;20029;-75
2022/04/05 10:01:23;;;;;;;11.30;2.20;;;11.10;95.10;;;;;;5053442;28;20024;-71
2022/04/05 10:03:57;;;;;;;6.28;2.00;;;11.10;95.10;;;;;;5052573;28;20041;-70
2022/04/05 10:06:22;;;;;;;11.45;2.17;;;11.10;95.10;;;;;;5052523;28;20592;-74
2022/04/05 10:08:48;;;;;;;9.40;1.95;;;11.00;95.10;;;;;;5052492;28;20047;-73
2022/04/05 10:11:14;;;;;;;9.32;2.08;;;10.90;95.40;;;;;;5052462;28;20458;-72
2022/04/05 10:13:41;;;;;;;11.00;2.05;;;10.90;95.30;;;;;;5051693;28;20024;-74
2022/04/05 10:16:11;;;;;;;4.72;1.63;;;10.90;95.40;;;;;;5052743;28;20033;-72
2022/04/05 10:18:37;;;;;;;13.27;2.65;;;11.00;95.60;;;;;;5052527;28;20653;-72
2022/04/05 10:21:05;;;;;;;9.98;1.55;;;11.10;95.60;;;;;;5052418;28;20082;-73
2022/04/05 10:23:32;;;;;;;12.90;2.28;;;11.20;95.30;;;;;;5052476;28;20041;-75
2022/04/05 10:25:59;;;;;;;12.90;2.58;;;11.30;95.40;;;;;;5052337;28;20060;-75
2022/04/05 10:28:30;;;;;;;15.02;2.72;;;11.30;95.50;;;;;;5052279;28;20109;-74
2022/04/05 10:31:19;;;;;;;10.85;2.13;;;11.30;95.50;;;;;;5052013;28;20463;-75
2022/04/05 10:33:59;;;;;;;14.68;4.80;;;11.10;95.20;;;;;;5051740;28;20056;-72
2022/04/05 10:36:25;;;;;;;9.95;2.70;;;11.00;95.60;;;;;;5051714;28;20124;-74
2022/04/05 10:39:18;;;;;;;7.25;2.20;;;10.90;95.70;;;;;;5051702;28;20033;-73
2022/04/05 10:42:11;;;;;;;7.32;2.42;;;10.80;95.80;;;;;;5050285;28;20037;-71
2022/04/05 10:44:39;;;;;;;6.38;2.25;;;10.80;96.30;;;;;;5051117;28;20511;-74
2022/04/05 10:47:06;;;;;;;;;;;10.80;96.70;;;;;;5052549;28;20079;-83
2022/04/05 10:49:43;;;;;;;11.75;2.40;;;10.90;96.80;;;;;;5052265;28;19944;-78
2022/04/05 10:52:26;;;;;;;8.90;3.50;;;11.00;97.10;;;;;;5050935;28;20473;-73
2022/04/05 10:55:16;;;;;;;15.30;3.15;;;10.90;96.40;;;;;;5051692;28;20052;-71
2022/04/05 10:57:41;;;;;;;13.55;3.45;;;10.70;97.00;;;;;;5051565;28;20515;-71
2022/04/05 11:00:19;;;;;;;12.40;3.20;;;10.70;97.10;;;;;;5051523;28;20112;-72
2022/04/05 11:02:45;;;;;;;11.95;3.28;;;10.80;97.50;;;;;;5051242;28;20025;-70
2022/04/05 11:05:14;;;;;;;8.50;2.88;;;11.00;97.40;;;;;;5050253;28;20104;-70
2022/04/05 11:08:11;;;;;;;8.40;2.90;;;10.90;97.30;;;;;;5050190;28;20173;-70
2022/04/05 11:10:37;;;;;;;8.85;3.30;;;10.90;97.80;;;;;;5051326;28;20335;-70
2022/04/05 11:13:08;;;;;;;12.18;3.75;;;11.10;97.70;;;;;;5051363;28;20037;-69
2022/04/05 11:15:40;;;;;;;7.53;2.65;;;11.10;97.90;;;;;;5051903;28;20040;-83
2022/04/05 11:18:07;;;;;;;11.30;2.88;;;11.00;98.10;;;;;;5050413;28;20025;-69
2022/04/05 11:20:34;;;;;;;10.45;3.15;;;11.10;98.30;;;;;;5051345;28;20060;-74
2022/04/05 11:23:00;;;;;;;8.77;3.33;;;11.10;98.20;;;;;;5051251;28;20151;-70
2022/04/05 11:25:28;;;;;;;14.27;4.50;;;10.90;98.60;;;;;;5050539;28;20052;-70
2022/04/05 11:27:55;;;;;;;14.77;3.97;;;11.20;99.00;;;;;;5050793;28;20082;-71
2022/04/05 11:30:21;;;;;;;11.57;3.70;;;11.30;98.90;;;;;;5050864;28;20417;-70
2022/04/05 11:33:09;;;;;;;10.15;3.85;;;11.30;98.70;;;;;;5050877;28;20029;-69
2022/04/05 11:35:35;;;;;;;12.10;3.83;;;11.20;98.70;;;;;;5049766;28;20481;-70
2022/04/05 11:38:00;;;;;;;10.80;3.50;;;11.30;98.80;;;;;;5051014;28;20032;-70
2022/04/05 11:40:26;;;;;;;10.13;3.70;;;11.20;98.60;;;;;;5051236;28;20036;-70
2022/04/05 11:42:52;;;;;;;15.75;3.97;;;11.30;98.80;;;;;;5050814;28;20029;-69
2022/04/05 11:45:19;;;;;;;11.55;4.03;;;11.20;99.10;;;;;;5050711;28;20498;-69
2022/04/05 11:47:52;;;;;;;7.80;3.10;;;11.20;98.90;;;;;;5050512;28;20045;-70
2022/04/05 11:50:19;;;;;;;9.18;3.95;;;11.10;99.10;;;;;;5050860;28;20041;-72
2022/04/05 11:52:44;;;;;;;10.70;4.00;;;11.10;99.00;;;;;;5049551;28;20041;-71
2022/04/05 11:58:04;;;;;;;10.63;3.55;;;11.30;99.40;;;;;;5050537;28;20504;-71
2022/04/05 12:00:30;;;;;;;6.25;3.08;;;11.20;99.20;;;;;;5050611;28;20123;-70
2022/04/05 12:03:06;;;;;;;9.93;4.03;;;11.30;99.10;;;;;;5050450;28;20067;-70
2022/04/05 12:05:45;;;;;;;8.00;3.53;;;11.30;99.20;;;;;;5050466;28;20033;-69
2022/04/05 12:08:15;;;;;;;5.75;3.38;;;11.30;99.00;;;;;;5049290;28;20114;-71
2022/04/05 12:10:43;;;;;;;7.72;3.75;;;11.20;99.50;;;;;;5050374;28;20025;-70
2022/04/05 12:13:08;;;;;;;12.98;4.05;;;11.30;99.40;;;;;;5050958;28;20116;-69
2022/04/05 12:15:37;;;;;;;9.48;3.42;;;11.30;99.60;;;;;;5050097;28;20112;-70
2022/04/05 12:18:20;;;;;;;13.70;3.67;;;11.30;99.60;;;;;;5050385;28;20025;-78
2022/04/05 12:21:05;;;;;;;8.35;3.42;;;11.20;99.50;;;;;;5050459;28;20229;-71
2022/04/05 12:23:33;;;;;;;13.55;3.35;;;11.10;99.70;;;;;;5050277;28;20033;-71
2022/04/05 12:26:13;;;;;;;8.07;3.17;;;11.10;99.90;;;;;;5050195;28;20033;-70
2022/04/05 12:28:43;;;;;;;6.38;3.53;;;11.10;99.90;;;;;;5049882;28;20021;-72
2022/04/05 12:31:19;;;;;;;7.78;3.70;;;11.10;99.90;;;;;;5050598;28;20447;-71
2022/04/05 12:34:00;;;;;;;6.43;3.15;;;11.20;99.90;;;;;;5050548;28;20033;-77
2022/04/05 12:36:33;;;;;;;15.13;4.35;;;11.20;99.90;;;;;;5050460;28;20025;-75
2022/04/05 12:39:00;;;;;;;5.28;2.92;;;11.30;99.90;;;;;;5054443;28;20040;-75
2022/04/05 12:41:25;;;;;;;13.30;2.47;;;11.20;99.90;;;;;;5054269;28;20133;-72
2022/04/05 12:44:11;;;;;;;5.13;2.65;;;11.20;99.90;;;;;;5054000;28;20402;-72
2022/04/05 12:46:54;;;;;;;5.00;2.20;;;11.30;99.90;;;;;;5054370;28;20127;-71
2022/04/05 12:49:22;;;;;;;5.82;2.60;;;11.20;99.90;;;;;;5053839;28;20344;-71
2022/04/05 12:51:49;;;;;;;3.80;2.47;;;11.30;99.90;;;;;;5053222;28;20550;-71
2022/04/05 12:54:24;;;;;;;4.28;2.60;;;11.40;99.90;;;;;;5054063;28;20033;-71
2022/04/05 12:56:50;;;;;;;5.07;2.30;;;11.40;99.90;;;;;;5053834;28;20445;-71
2022/04/05 12:59:25;;;;;;;4.53;2.00;;;11.50;99.90;;;;;;5052865;28;20197;-71